Time;durP1;ratioP1;P1;durP2;ratioP2;P2;SDS_P1;SDS_P2;PMS_P1;PMS_P2;Temp;Humidity;BMP_temperature;BMP_pressure;BME280_temperature;BME280_humidity;BME280_pressure;Samples;Min_cycle;Max_cycle;Signal;HPM_P1;HPM_P2
2024/04/13 00:00:04;;;;;;;29.40;14.30;;;;;;;-147.86;100.00;-17609.17;105645;1257;61339;-44
2024/04/13 00:02:41;;;;;;;19.00;13.40;;;;;;;-147.86;100.00;-17609.17;105580;1256;74498;-43
2024/04/13 00:05:09;;;;;;;30.50;15.40;;;;;;;-147.86;100.00;-17609.17;105630;1256;65383;-44
2024/04/13 00:07:37;;;;;;;25.50;12.10;;;;;;;-147.86;100.00;-17609.17;105652;1256;72602;-43
2024/04/13 00:10:04;;;;;;;30.40;12.50;;;;;;;-147.86;100.00;-17609.17;105590;1260;61204;-48
2024/04/13 00:12:31;;;;;;;34.40;14.10;;;;;;;-147.86;100.00;-17609.17;105602;1261;61274;-46
2024/04/13 00:14:58;;;;;;;39.70;11.50;;;;;;;-147.86;100.00;-17609.17;105615;1260;74677;-46
2024/04/13 00:17:25;;;;;;;30.00;12.40;;;;;;;-147.86;100.00;-17609.17;105625;1260;65374;-46
2024/04/13 00:19:52;;;;;;;28.30;12.70;;;;;;;-147.86;100.00;-17609.17;105598;1256;72652;-47
2024/04/13 00:22:19;;;;;;;26.10;11.40;;;;;;;-147.86;100.00;-17609.17;105577;1256;61859;-48
2024/04/13 00:24:46;;;;;;;30.10;10.50;;;;;;;-147.86;100.00;-17570.43;105612;1256;61350;-45
2024/04/13 00:27:13;;;;;;;27.10;9.90;;;;;;;-147.86;100.00;-17251.42;105679;1260;74603;-46
2024/04/13 00:29:41;;;;;;;25.40;10.50;;;;;;;-147.86;100.00;-16833.58;105569;1256;65378;-48
2024/04/13 00:32:08;;;;;;;27.00;10.40;;;;;;;-147.86;100.00;-16424.47;105584;1257;72455;-45
2024/04/13 00:34:35;;;;;;;24.00;8.80;;;;;;;-147.86;100.00;-15972.13;105599;1256;61157;-45
2024/04/13 00:37:03;;;;;;;22.80;8.70;;;;;;;-147.86;100.00;-15629.66;105594;1256;61323;-49
2024/04/13 00:39:31;;;;;;;16.90;7.10;;;;;;;-147.86;100.00;-15321.87;105573;1256;73391;-50
2024/04/13 00:41:58;;;;;;;21.40;7.60;;;;;;;-147.86;100.00;-15147.52;105610;1256;63671;-49
2024/04/13 00:44:25;;;;;;;22.50;8.00;;;;;;;-147.86;100.00;-15188.03;105673;1260;72573;-48
2024/04/13 00:47:04;;;;;;;17.10;8.60;;;;;;;-147.86;100.00;-15331.91;105572;1256;61251;-49
2024/04/13 00:49:32;;;;;;;16.80;8.90;;;;;;;-147.86;100.00;-15952.85;105571;1256;61209;-43
2024/04/13 00:51:59;;;;;;;26.10;10.00;;;;;;;-147.86;100.00;-16223.19;105611;1260;74637;-45
2024/04/13 00:54:26;;;;;;;18.20;9.10;;;;;;;-147.86;100.00;-16664.71;105529;1257;65666;-48
2024/04/13 00:56:53;;;;;;;23.00;8.90;;;;;;;-147.86;100.00;-17075.33;105412;1257;72545;-46
2024/04/13 00:59:22;;;;;;;19.10;9.60;;;;;;;-147.86;100.00;-17342.11;105108;1263;61115;-47
2024/04/13 01:01:50;;;;;;;14.10;7.60;;;;;;;-147.86;100.00;-17443.40;105630;1256;61330;-50
2024/04/13 01:04:18;;;;;;;21.60;7.10;;;;;;;-147.86;100.00;-17495.06;105633;1260;74456;-46
2024/04/13 01:06:44;;;;;;;15.40;7.30;;;;;;;-147.86;100.00;-17502.00;105582;1260;65273;-46
2024/04/13 01:09:14;;;;;;;21.40;6.50;;;;;;;-147.86;100.00;-17452.66;105599;1261;72462;-46
2024/04/13 01:11:42;;;;;;;10.90;6.00;;;;;;;-147.86;100.00;-17412.95;105564;1261;61140;-47
2024/04/13 01:14:13;;;;;;;13.10;6.70;;;;;;;-147.86;100.00;-17374.01;105617;1256;61354;-45
2024/04/13 01:16:40;;;;;;;16.90;6.70;;;;;;;-147.86;100.00;-17328.14;105613;1256;73422;-47
2024/04/13 01:19:07;;;;;;;15.70;6.40;;;;;;;-147.86;100.00;-17264.24;105673;1260;65439;-42
2024/04/13 01:21:34;;;;;;;24.20;5.60;;;;;;;-147.86;100.00;-17304.33;105611;1261;72563;-45
2024/04/13 01:24:05;;;;;;;12.50;5.00;;;;;;;-147.86;100.00;-17384.42;105498;1262;61309;-43
2024/04/13 01:26:41;;;;;;;12.70;6.00;;;;;;;-147.86;100.00;-17543.25;105628;1256;61229;-45
2024/04/13 01:29:08;;;;;;;21.30;6.20;;;;;;;-147.86;100.00;-17609.17;105565;1260;74566;-48
2024/04/13 01:31:35;;;;;;;18.10;5.50;;;;;;;-147.86;100.00;-17609.17;105583;1256;66936;-48
2024/04/13 01:34:02;;;;;;;11.30;5.80;;;;;;;-147.86;100.00;-17609.17;105579;1256;72436;-47
2024/04/13 01:36:36;;;;;;;9.20;5.40;;;;;;;-147.86;100.00;-17609.17;105600;1256;61995;-49
2024/04/13 01:39:08;;;;;;;16.20;6.40;;;;;;;-147.86;100.00;-17609.17;105637;1256;61351;-44
2024/04/13 01:41:52;;;;;;;9.50;6.10;;;;;;;-147.86;100.00;-17609.17;105594;1256;74604;-49
2024/04/13 01:44:19;;;;;;;12.60;4.80;;;;;;;-147.86;100.00;-17609.17;105556;1256;65592;-46
2024/04/13 01:46:46;;;;;;;20.80;6.00;;;;;;;-147.86;100.00;-17609.17;105578;1258;72725;-48
2024/04/13 01:49:13;;;;;;;24.80;6.20;;;;;;;-147.86;100.00;-17609.17;105590;1256;62070;-48
2024/04/13 01:51:40;;;;;;;16.40;6.20;;;;;;;-147.86;100.00;-17609.17;105621;1256;61328;-48
2024/04/13 01:54:07;;;;;;;19.70;6.30;;;;;;;-147.86;100.00;-17609.17;105792;1256;74746;-48
2024/04/13 01:56:34;;;;;;;25.70;6.40;;;;;;;-147.86;100.00;-17609.17;105622;1253;64668;-48
2024/04/13 01:59:01;;;;;;;21.40;7.10;;;;;;;-147.86;100.00;-17609.17;105643;1253;72684;-49
2024/04/13 02:01:30;;;;;;;21.10;7.00;;;;;;;-147.86;100.00;-17609.17;105762;1253;61686;-48
2024/04/13 02:03:57;;;;;;;18.60;6.50;;;;;;;-147.86;100.00;-17609.17;105822;1253;61257;-50
2024/04/13 02:06:24;;;;;;;25.20;6.90;;;;;;;-147.86;100.00;-17609.17;105822;1256;74676;-50
2024/04/13 02:08:51;;;;;;;16.00;7.30;;;;;;;-147.86;100.00;-17609.17;105900;1256;65333;-44
2024/04/13 02:11:18;;;;;;;12.40;6.30;;;;;;;-147.86;100.00;-17609.17;105881;1257;73034;-49
2024/04/13 02:13:45;;;;;;;21.50;6.90;;;;;;;-147.86;100.00;-17598.57;105821;1253;62024;-45
2024/04/13 02:16:12;;;;;;;24.80;6.50;;;;;;;-147.86;100.00;-17506.63;105825;1253;61288;-48
2024/04/13 02:18:39;;;;;;;16.30;6.40;;;;;;;-147.86;100.00;-17351.65;105783;1257;74621;-47
2024/04/13 02:21:06;;;;;;;17.00;6.40;;;;;;;-147.86;100.00;-17120.04;105821;1257;65437;-51
2024/04/13 02:23:35;;;;;;;11.60;6.60;;;;;;;-147.86;100.00;-16803.12;105788;1253;72697;-47
2024/04/13 02:26:03;;;;;;;22.10;6.90;;;;;;;-147.86;100.00;-16372.80;105872;1253;61837;-45
2024/04/13 02:28:30;;;;;;;28.20;7.60;;;;;;;-147.86;100.00;-15786.62;105790;1253;61261;-51
2024/04/13 02:30:56;;;;;;;17.20;6.70;;;;;;;-147.86;100.00;-14791.44;105791;1256;74600;-46
2024/04/13 02:33:24;;;;;;;21.40;6.30;;;;;;;-147.86;100.00;-13358.02;105822;1253;65500;-46
2024/04/13 02:35:58;;;;;;;18.40;5.90;;;;;;;-147.86;100.00;-11950.34;105898;1253;71600;-47
2024/04/13 02:38:26;;;;;;;12.30;6.00;;;;;;;-147.86;100.00;-10940.63;105841;1253;61145;-45
2024/04/13 02:40:55;;;;;;;17.20;6.30;;;;;;;-147.86;100.00;-9509.68;105896;1253;61282;-46
2024/04/13 02:43:22;;;;;;;12.20;5.70;;;;;;;-147.86;100.00;-8231.19;105848;1253;73263;-45
2024/04/13 02:45:49;;;;;;;17.30;5.70;;;;;;;-147.86;100.00;-6923.29;105719;1253;64468;-45
2024/04/13 02:48:16;;;;;;;16.80;5.90;;;;;;;-147.86;100.00;-5752.22;105826;1256;72680;-45
2024/04/13 02:50:44;;;;;;;21.50;6.00;;;;;;;-147.86;100.00;-4527.78;105835;1253;61941;-46
2024/04/13 02:53:11;;;;;;;18.80;6.90;;;;;;;-147.86;100.00;-3125.75;105881;1253;61243;-48
2024/04/13 02:55:37;;;;;;;15.50;5.70;;;;;;;-147.86;100.00;-1778.18;105832;1257;74451;-48
2024/04/13 02:58:05;;;;;;;15.20;5.90;;;;;;;-147.86;100.00;-431.29;105841;1257;65375;-43
2024/04/13 03:00:31;;;;;;;11.90;5.80;;;;;;;-147.86;100.00;871.90;105851;1257;72417;-45
2024/04/13 03:02:59;;;;;;;20.20;5.40;;;;;;;-147.86;100.00;2169.36;105876;1253;61153;-46
2024/04/13 03:05:26;;;;;;;17.00;5.60;;;;;;;-147.86;100.00;3928.91;105963;1253;61248;-47
2024/04/13 03:07:53;;;;;;;10.40;5.00;;;;;;;-147.86;100.00;5600.44;105842;1257;74674;-45
2024/04/13 03:10:19;;;;;;;12.90;5.50;;;;;;;-147.86;100.00;7283.56;105862;1253;65291;-45
2024/04/13 03:12:46;;;;;;;15.90;5.70;;;;;;;-147.86;100.00;8860.27;105820;1253;72630;-43
2024/04/13 03:15:13;;;;;;;19.60;6.50;;;;;;;-147.86;100.00;10172.42;105824;1252;61225;-44
2024/04/13 03:17:40;;;;;;;12.40;5.30;;;;;;;-147.86;100.00;11211.19;105935;1253;61240;-45
2024/04/13 03:20:08;;;;;;;15.90;5.10;;;;;;;-147.86;100.00;12327.57;105871;1257;74398;-45
2024/04/13 03:22:35;;;;;;;16.80;5.20;;;;;;;-147.86;100.00;13340.12;105778;1257;65370;-43
2024/04/13 03:25:03;;;;;;;10.70;4.70;;;;;;;-147.86;100.00;14312.10;105822;1257;72551;-46
2024/04/13 03:27:31;;;;;;;16.40;5.30;;;;;;;-147.86;100.00;14622.28;105941;1257;61209;-48
2024/04/13 03:29:58;;;;;;;13.00;4.70;;;;;;;-147.86;100.00;14703.12;105864;1253;61341;-44
2024/04/13 03:32:25;;;;;;;19.80;4.90;;;;;;;-147.86;100.00;14594.65;105863;1256;74501;-46
2024/04/13 03:34:52;;;;;;;11.70;4.20;;;;;;;-147.86;100.00;14108.38;105887;1257;65439;-48
2024/04/13 03:37:19;;;;;;;9.60;4.80;;;;;;;-147.86;100.00;13481.50;105831;1254;72494;-48
2024/04/13 03:39:45;;;;;;;16.40;4.40;;;;;;;-147.86;100.00;12530.29;105827;1257;61893;-49
2024/04/13 03:42:13;;;;;;;8.10;4.30;;;;;;;-147.86;100.00;11042.17;105889;1253;61324;-44
2024/04/13 03:44:40;;;;;;;18.20;5.30;;;;;;;-147.86;100.00;9372.94;105909;1252;74474;-46
2024/04/13 03:47:07;;;;;;;7.30;4.10;;;;;;;-147.86;100.00;7072.01;105815;1253;65511;-46
2024/04/13 03:49:34;;;;;;;14.60;4.40;;;;;;;-147.86;100.00;3216.02;105885;1256;72495;-44
2024/04/13 03:52:02;;;;;;;4.90;3.90;;;;;;;-147.86;100.00;-1376.77;105857;1253;62172;-44
2024/04/13 03:54:29;;;;;;;13.20;4.30;;;;;;;-147.86;100.00;-6020.20;105902;1253;61228;-46
2024/04/13 03:56:56;;;;;;;14.10;4.40;;;;;;;-147.86;100.00;-10079.07;105826;1255;74455;-46
2024/04/13 03:59:23;;;;;;;9.60;4.10;;;;;;;-147.86;100.00;-13606.57;105801;1257;65780;-47
2024/04/13 04:01:50;;;;;;;15.70;4.40;;;;;;;-147.86;100.00;-16290.28;105809;1253;72504;-44
2024/04/13 04:04:17;;;;;;;10.60;3.70;;;;;;;-147.86;100.00;-17609.17;105863;1257;61938;-47
2024/04/13 04:06:45;;;;;;;10.50;3.40;;;;;;;-147.86;100.00;-17609.17;105598;1253;61319;-48
2024/04/13 04:09:12;;;;;;;14.20;3.50;;;;;;;-147.86;100.00;-17609.17;105773;1256;74610;-44
2024/04/13 04:11:39;;;;;;;15.70;4.00;;;;;;;-147.86;100.00;-17609.17;105897;1256;65388;-49
2024/04/13 04:14:06;;;;;;;9.60;3.60;;;;;;;-147.86;100.00;-17609.17;105890;1257;72606;-48
2024/04/13 04:16:32;;;;;;;8.40;3.50;;;;;;;-147.86;100.00;-17609.17;105830;1253;61961;-45
2024/04/13 04:18:59;;;;;;;7.60;3.90;;;;;;;-147.86;100.00;-17609.17;105925;1253;61235;-46
2024/04/13 04:21:26;;;;;;;10.40;3.50;;;;;;;-147.86;100.00;-17609.17;105872;1257;74593;-46
2024/04/13 04:23:54;;;;;;;9.40;3.60;;;;;;;-147.86;100.00;-17609.17;105851;1257;65395;-48
2024/04/13 04:26:20;;;;;;;10.90;3.20;;;;;;;-147.86;100.00;-17609.17;105820;1253;73501;-43
2024/04/13 04:28:47;;;;;;;8.50;3.50;;;;;;;-147.86;100.00;-17609.17;105830;1253;61941;-44
2024/04/13 04:31:14;;;;;;;5.40;3.20;;;;;;;-147.86;100.00;-17609.17;105797;1253;61292;-44
2024/04/13 04:33:41;;;;;;;5.30;3.50;;;;;;;-147.86;100.00;-17609.17;105846;1254;74628;-46
2024/04/13 04:36:09;;;;;;;5.60;3.90;;;;;;;-147.86;100.00;-17609.17;105831;1253;64394;-43
2024/04/13 04:38:36;;;;;;;17.50;4.10;;;;;;;-147.86;100.00;-17609.17;105782;1253;72660;-47
2024/04/13 04:41:03;;;;;;;7.50;3.00;;;;;;;-147.86;100.00;-17609.17;105887;1253;62082;-45
2024/04/13 04:43:31;;;;;;;8.50;3.00;;;;;;;-147.86;100.00;-17609.17;105847;1253;61341;-46
2024/04/13 04:45:58;;;;;;;9.60;3.50;;;;;;;-147.86;100.00;-17609.17;105909;1253;74595;-44
2024/04/13 04:48:25;;;;;;;12.70;3.20;;;;;;;-147.86;100.00;-17609.17;105830;1253;65440;-43
2024/04/13 04:50:57;;;;;;;7.50;3.30;;;;;;;-147.86;100.00;-17609.17;105829;1253;72734;-47
2024/04/13 04:53:26;;;;;;;4.10;3.00;;;;;;;-147.86;100.00;-17609.17;105870;1253;61605;-46
2024/04/13 04:55:54;;;;;;;6.30;3.00;;;;;;;-147.86;100.00;-17609.17;105900;1257;61218;-48
2024/04/13 04:58:21;;;;;;;11.00;3.30;;;;;;;-147.86;100.00;-17609.17;105862;1254;74629;-49
2024/04/13 05:00:49;;;;;;;10.50;3.40;;;;;;;-147.86;100.00;-17609.17;105897;1257;65466;-50
2024/04/13 05:03:16;;;;;;;7.00;3.30;;;;;;;-147.86;100.00;-17609.17;105859;1257;72647;-44
2024/04/13 05:05:43;;;;;;;17.30;3.50;;;;;;;-147.86;100.00;-17609.17;105884;1253;61889;-44
2024/04/13 05:08:11;;;;;;;9.50;2.90;;;;;;;-147.86;100.00;-17609.17;105826;1259;61329;-47
2024/04/13 05:10:38;;;;;;;4.10;2.50;;;;;;;-147.86;100.00;-17609.17;105829;1253;74380;-46
2024/04/13 05:13:05;;;;;;;6.90;2.70;;;;;;;-147.86;100.00;-17609.17;105929;1253;65502;-46
2024/04/13 05:15:31;;;;;;;15.10;2.90;;;;;;;-147.86;100.00;-17609.17;105853;1253;72706;-46
2024/04/13 05:17:59;;;;;;;6.10;2.90;;;;;;;-147.86;100.00;-17609.17;105832;1253;61274;-45
2024/04/13 05:20:26;;;;;;;6.80;2.40;;;;;;;-147.86;100.00;-17609.17;105944;1253;61260;-43
2024/04/13 05:22:53;;;;;;;6.70;2.40;;;;;;;-147.86;100.00;-17609.17;105875;1254;74535;-47
2024/04/13 05:25:20;;;;;;;5.10;2.00;;;;;;;-147.86;100.00;-17609.17;105836;1253;65631;-47
2024/04/13 05:27:47;;;;;;;4.10;2.10;;;;;;;-147.86;100.00;-17609.17;105851;1253;73081;-49
2024/04/13 05:30:14;;;;;;;6.80;2.20;;;;;;;-147.86;100.00;-17609.17;105879;1256;61135;-49
2024/04/13 05:32:41;;;;;;;7.00;2.20;;;;;;;-147.86;100.00;-17609.17;105849;1253;61286;-50
2024/04/13 05:35:08;;;;;;;5.20;1.80;;;;;;;-147.86;100.00;-17609.17;105890;1258;74684;-46
2024/04/13 05:37:35;;;;;;;6.60;1.90;;;;;;;-147.86;100.00;-17609.17;105869;1256;64262;-48
2024/04/13 05:40:04;;;;;;;9.50;2.00;;;;;;;-147.86;100.00;-17609.17;105829;1253;71610;-44
2024/04/13 05:42:31;;;;;;;7.10;1.90;;;;;;;-147.86;100.00;-17609.17;105892;1263;61241;-50
2024/04/13 05:44:58;;;;;;;6.70;2.40;;;;;;;-147.86;100.00;-17609.17;105838;1253;61827;-52
2024/04/13 05:47:25;;;;;;;6.40;1.90;;;;;;;-147.86;100.00;-17609.17;105912;1257;74487;-48
2024/04/13 05:49:52;;;;;;;6.30;2.00;;;;;;;-147.86;100.00;-17609.17;105838;1253;65485;-49
2024/04/13 05:52:18;;;;;;;3.30;1.50;;;;;;;-147.86;100.00;-17609.17;105956;1253;72729;-45
2024/04/13 05:54:45;;;;;;;7.20;1.50;;;;;;;-147.86;100.00;-17609.17;105838;1257;61222;-47
2024/04/13 05:57:13;;;;;;;6.90;1.60;;;;;;;-147.86;100.00;-17609.17;105845;1253;61330;-47
2024/04/13 05:59:40;;;;;;;9.40;1.50;;;;;;;-147.86;100.00;-17609.17;105871;1254;74634;-47
2024/04/13 06:02:08;;;;;;;12.80;2.20;;;;;;;-147.86;100.00;-17609.17;105854;1253;65548;-48
2024/04/13 06:04:35;;;;;;;6.00;1.60;;;;;;;-147.86;100.00;-17609.17;105861;1253;72428;-46
2024/04/13 06:07:02;;;;;;;4.70;1.80;;;;;;;-147.86;100.00;-17609.17;105885;1257;61257;-46
2024/04/13 06:09:29;;;;;;;8.70;1.80;;;;;;;-147.86;100.00;-17609.17;105894;1252;61241;-48
2024/04/13 06:11:56;;;;;;;2.50;1.30;;;;;;;-147.86;100.00;-17609.17;105829;1253;73614;-49
2024/04/13 06:14:23;;;;;;;3.30;1.60;;;;;;;-147.86;100.00;-17609.17;105835;1256;65553;-50
2024/04/13 06:16:49;;;;;;;2.60;1.30;;;;;;;-147.86;100.00;-15633.24;105796;1253;72517;-50
2024/04/13 06:19:16;;;;;;;4.60;1.30;;;;;;;-147.86;99.09;-7675.10;105856;1256;61222;-47
2024/04/13 06:21:43;;;;;;;1.20;1.10;;;;;;;-147.86;96.57;4315.78;105821;1253;61326;-46
2024/04/13 06:24:10;;;;;;;1.70;1.30;;;;;;;-147.86;96.39;14151.54;105965;1256;74564;-48
2024/04/13 06:26:37;;;;;;;6.50;1.70;;;;;;;-147.86;95.62;18731.75;105811;1257;64657;-46
2024/04/13 06:29:04;;;;;;;1.90;1.70;;;;;;;-147.86;95.80;23175.43;105889;1253;72643;-50
2024/04/13 06:31:31;;;;;;;7.90;1.40;;;;;;;-147.86;96.01;25319.49;105824;1253;61835;-46
2024/04/13 06:33:58;;;;;;;6.40;1.10;;;;;;;-147.86;93.40;32474.21;105824;1254;61321;-51
2024/04/13 06:36:24;;;;;;;2.10;1.50;;;;;;;-147.86;91.35;36994.68;105825;1253;74743;-46
2024/04/13 06:38:51;;;;;;;4.30;1.40;;;;;;;-147.86;86.98;41234.42;105852;1253;65463;-44
2024/04/13 06:41:18;;;;;;;9.90;1.30;;;;;;;-147.86;86.19;43154.54;105841;1253;72938;-46
2024/04/13 06:43:45;;;;;;;8.70;1.30;;;;;;;-147.86;84.25;44361.54;105875;1259;61435;-47
2024/04/13 06:46:13;;;;;;;2.20;1.30;;;;;;;-147.86;80.64;45224.93;105842;1253;61890;-53
2024/04/13 06:48:40;;;;;;;2.10;1.30;;;;;;;-147.86;82.71;46554.04;105660;1253;76343;-50
2024/04/13 06:51:08;;;;;;;2.10;1.10;;;;;;;-147.86;80.20;46869.15;105555;1259;66995;-47
2024/04/13 06:53:35;;;;;;;3.20;1.20;;;;;;;-147.86;82.48;47197.22;105666;1253;72784;-52
2024/04/13 06:56:02;;;;;;;6.70;1.50;;;;;;;-147.86;81.92;47350.09;105784;1259;61561;-47
2024/04/13 06:58:30;;;;;;;6.20;1.60;;;;;;;-147.86;80.20;47487.68;105842;1253;61244;-47
2024/04/13 07:00:58;;;;;;;3.00;1.10;;;;;;;-147.86;81.58;47641.74;105839;1253;74860;-49
2024/04/13 07:03:25;;;;;;;3.90;1.10;;;;;;;-147.86;80.38;47744.84;105858;1253;65927;-51
2024/04/13 07:06:00;;;;;;;2.60;1.40;;;;;;;-147.86;77.93;47826.00;105882;1253;72841;-45
2024/04/13 07:08:27;;;;;;;1.40;1.10;;;;;;;-147.86;72.35;47894.99;105848;1257;61101;-48
2024/04/13 07:10:55;;;;;;;6.60;1.20;;;;;;;-147.86;74.41;47987.91;105828;1253;61350;-51
2024/04/13 07:13:25;;;;;;;4.80;1.50;;;;;;;-147.86;76.22;48040.45;105856;1253;73127;-46
2024/04/13 07:15:52;;;;;;;3.20;1.20;;;;;;;-147.86;76.93;48086.71;105826;1257;65775;-47
2024/04/13 07:18:19;;;;;;;5.80;1.00;;;;;;;-147.86;78.45;48140.03;105812;1253;73125;-47
2024/04/13 07:20:47;;;;;;;4.40;1.40;;;;;;;-147.86;74.97;48124.74;105608;1258;61270;-47
2024/04/13 07:23:16;;;;;;;7.10;1.30;;;;;;;-147.86;70.88;48116.11;105875;1253;61253;-54
2024/04/13 07:25:44;;;;;;;4.20;1.30;;;;;;;-147.86;73.74;48133.36;105839;1259;74864;-51
2024/04/13 07:28:11;;;;;;;8.10;1.60;;;;;;;-147.86;72.59;48149.43;105831;1257;65441;-48
2024/04/13 07:30:38;;;;;;;2.70;1.20;;;;;;;-147.86;71.06;48159.63;105827;1253;72419;-50
2024/04/13 07:33:05;;;;;;;3.20;1.10;;;;;;;-147.86;73.31;48182.76;105895;1259;61133;-48
2024/04/13 07:35:32;;;;;;;3.70;1.20;;;;;;;-147.86;72.94;48206.29;105606;1253;395410;-50
2024/04/13 07:39:10;;;;;;;2.90;1.10;;;;;;;-147.86;70.28;47748.08;102426;1292;600504;-47
2024/04/13 07:41:37;;;;;;;6.30;1.20;;;;;;;-147.86;72.27;48241.18;104883;1271;60209;-47
2024/04/13 07:44:04;;;;;;;3.30;1.50;;;;;;;-147.86;69.99;48240.00;104898;1267;59957;-44
2024/04/13 07:46:32;;;;;;;6.70;1.30;;;;;;;-147.86;70.44;48243.93;105453;1263;73247;-51
2024/04/13 07:49:00;;;;;;;8.70;1.60;;;;;;;-147.86;65.31;48223.14;105498;1263;66744;-45
2024/04/13 07:51:27;;;;;;;11.00;1.30;;;;;;;-147.86;61.07;48169.82;105235;1260;264604;-47
2024/04/13 07:53:54;;;;;;;10.40;1.00;;;;;;;-147.86;62.62;48121.60;105581;1260;60420;-47
2024/04/13 07:56:21;;;;;;;3.90;1.40;;;;;;;-147.86;60.84;48071.02;105671;1258;60468;-44
2024/04/13 07:58:49;;;;;;;4.60;1.50;;;;;;;-147.86;65.86;48030.64;105558;1260;72994;-46
2024/04/13 08:01:16;;;;;;;11.30;2.30;;;;;;;-147.86;69.22;48056.12;105513;1260;64686;-51
2024/04/13 08:03:44;;;;;;;5.00;1.80;;;;;;;-147.86;63.97;48006.73;105486;1260;73208;-47
2024/04/13 08:06:11;;;;;;;7.30;1.80;;;;;;;-147.86;65.70;47996.92;105556;1262;60819;-47
2024/04/13 08:08:39;;;;;;;13.00;1.80;;;;;;;-147.86;63.10;47954.58;105514;1262;60435;-51
2024/04/13 08:11:07;;;;;;;5.50;1.60;;;;;;;-147.86;65.26;47929.88;105493;1262;74724;-51
2024/04/13 08:13:34;;;;;;;1.40;1.20;;;;;;;-147.86;64.80;47933.41;105383;1263;63972;-47
2024/04/13 08:16:06;;;;;;;1.90;1.50;;;;;;;-147.86;64.25;47926.36;105510;1260;73881;-48
2024/04/13 08:18:33;;;;;;;10.40;2.40;;;;;;;-147.86;67.31;47937.73;105473;1262;61496;-46
2024/04/13 08:21:01;;;;;;;2.80;1.60;;;;;;;-147.86;66.19;47942.04;105503;1258;60636;-47
2024/04/13 08:23:28;;;;;;;6.50;2.10;;;;;;;-147.86;69.23;47968.30;105481;1260;75235;-48
2024/04/13 08:26:03;;;;;;;13.30;2.50;;;;;;;-147.86;66.39;47924.39;105586;1262;65978;-49
2024/04/13 08:28:30;;;;;;;5.70;2.50;;;;;;;-147.86;70.11;47907.54;105518;1260;74172;-46
2024/04/13 08:30:57;;;;;;;6.40;1.80;;;;;;;-147.86;76.50;47941.64;105533;1262;60535;-47
2024/04/13 08:33:25;;;;;;;16.40;2.10;;;;;;;-147.86;79.35;48003.59;105532;1260;60543;-51
2024/04/13 08:36:03;;;;;;;6.10;1.90;;;;;;;-147.86;80.70;48029.07;105539;1262;75332;-48
2024/04/13 08:38:33;;;;;;;13.60;1.60;;;;;;;-147.86;78.53;48002.80;105519;1260;66130;-47
2024/04/13 08:41:18;;;;;;;4.70;1.50;;;;;;;-147.86;75.31;47956.54;105486;1262;74187;-48
2024/04/13 08:43:45;;;;;;;7.90;1.80;;;;;;;-147.86;79.36;47974.18;105513;1262;61823;-44
2024/04/13 08:46:12;;;;;;;4.40;1.40;;;;;;;-147.86;80.84;48004.77;105498;1260;62326;-47
2024/04/13 08:48:40;;;;;;;7.70;1.40;;;;;;;-147.86;77.79;47958.51;105537;1260;74352;-48
2024/04/13 08:51:09;;;;;;;8.70;1.30;;;;;;;-147.86;73.86;47912.24;105534;1262;64992;-47
2024/04/13 08:53:36;;;;;;;3.20;1.30;;;;;;;-147.86;71.84;47854.62;105260;1260;74196;-48
2024/04/13 08:56:04;;;;;;;1.70;1.30;;;;;;;-147.86;73.50;47865.20;105291;1264;62240;-47
2024/04/13 08:58:34;;;;;;;5.50;1.70;;;;;;;-147.86;75.08;47873.04;105503;1262;61437;-48
2024/04/13 09:01:02;;;;;;;1.80;1.60;;;;;;;-147.86;76.77;47905.57;105478;1260;74571;-44
2024/04/13 09:03:30;;;;;;;4.50;1.60;;;;;;;-147.86;73.72;47885.98;105321;1264;66580;-47
2024/04/13 09:05:57;;;;;;;10.80;1.80;;;;;;;-147.86;71.09;47879.31;105290;1260;74224;-50
2024/04/13 09:08:24;;;;;;;2.90;1.70;;;;;;;-147.86;71.64;47865.98;105320;1265;62212;-45
2024/04/13 09:10:53;;;;;;;4.10;1.30;;;;;;;-147.86;68.07;47864.80;105482;1260;61734;-47
2024/04/13 09:13:21;;;;;;;9.70;1.20;;;;;;;-147.86;62.73;47785.23;105501;1260;75622;-49
2024/04/13 09:15:48;;;;;;;2.80;1.40;;;;;;;-147.86;63.50;47756.21;105561;1260;66964;-45
2024/04/13 09:18:16;;;;;;;3.40;1.40;;;;;;;-147.86;66.86;47765.23;105472;1259;74005;-51
2024/04/13 09:20:45;;;;;;;3.90;1.60;;;;;;;-147.86;68.97;47784.44;105493;1262;60440;-47
2024/04/13 09:23:12;;;;;;;11.20;1.70;;;;;;;-147.86;68.77;47810.71;105234;1260;62828;-51
2024/04/13 09:25:39;;;;;;;7.90;1.60;;;;;;;-147.86;67.76;47823.64;105484;1262;74365;-48
2024/04/13 09:28:07;;;;;;;4.40;1.50;;;;;;;-147.86;63.82;47824.04;105451;1262;67178;-50
2024/04/13 09:30:34;;;;;;;3.00;1.10;;;;;;;-147.86;61.38;47821.68;105498;1260;74178;-49
2024/04/13 09:33:08;;;;;;;6.70;1.10;;;;;;;-147.86;55.51;47797.38;105427;1259;61917;-52
2024/04/13 09:35:36;;;;;;;6.20;1.40;;;;;;;-147.86;55.12;47765.62;105493;1260;61671;-46
2024/04/13 09:38:03;;;;;;;7.80;1.40;;;;;;;-147.86;53.42;47746.80;105488;1262;75824;-49
2024/04/13 10:03:33;;;;;;;28.30;2.80;;;;;;;-147.86;56.94;47356.41;102517;1290;600448;-48
2024/04/13 10:06:03;;;;;;;6.00;1.60;;;;;;;-147.86;56.60;47678.59;105110;1269;61737;-48
2024/04/13 10:08:31;;;;;;;5.00;1.80;;;;;;;-147.86;54.73;47658.99;105670;1257;61742;-52
2024/04/13 10:10:59;;;;;;;12.10;1.60;;;;;;;-147.86;52.92;47663.70;105376;1257;74486;-48
2024/04/13 10:13:32;;;;;;;3.40;1.50;;;;;;;-147.86;54.68;47646.45;105619;1262;65232;-46
2024/04/13 10:16:00;;;;;;;2.90;1.50;;;;;;;-147.86;55.17;47659.38;105465;1260;251764;-49
2024/04/13 10:18:27;;;;;;;4.10;1.80;;;;;;;-147.86;55.38;47666.83;105700;1259;62081;-52
2024/04/13 10:20:56;;;;;;;10.50;1.70;;;;;;;-147.86;54.49;47668.79;105530;1253;61727;-47
2024/04/13 10:23:23;;;;;;;7.20;1.40;;;;;;;-147.86;52.31;47637.82;105709;1257;74666;-44
2024/04/13 10:25:57;;;;;;;3.00;1.10;;;;;;;-147.86;55.56;47671.14;105773;1259;66359;-49
2024/04/13 10:28:25;;;;;;;26.10;2.60;;;;;;;-147.86;56.07;47664.09;105791;1253;72424;-49
2024/04/13 10:30:54;;;;;;;4.90;1.20;;;;;;;-147.86;52.20;47647.62;105816;1258;62060;-46
2024/04/13 10:33:23;;;;;;;25.60;2.20;;;;;;;-147.86;53.60;47629.59;105777;1256;61619;-46
2024/04/13 10:35:57;;;;;;;18.00;1.90;;;;;;;-147.86;52.95;47601.76;105781;1255;75572;-50
2024/04/13 10:38:27;;;;;;;6.40;1.30;;;;;;;-147.86;53.85;47595.88;105804;1258;65452;-48
2024/04/13 10:40:55;;;;;;;13.70;1.70;;;;;;;-147.86;57.22;47586.46;105770;1255;74363;-49
2024/04/13 10:43:23;;;;;;;12.00;1.80;;;;;;;-147.86;58.19;47587.25;105772;1256;61776;-49
2024/04/13 10:45:58;;;;;;;7.20;1.20;;;;;;;-147.86;60.92;47605.29;105992;1255;61836;-48
2024/04/13 10:48:27;;;;;;;;;;;;;;;-147.86;62.52;47645.27;106036;1254;73863;-49
2024/04/13 10:50:55;;;;;;;5.00;1.30;;;;;;;-147.86;59.76;47661.34;106006;1256;66394;-50
2024/04/13 10:53:28;;;;;;;11.00;1.70;;;;;;;-147.86;53.81;47641.35;105988;1256;74259;-52
2024/04/13 10:55:57;;;;;;;32.00;1.70;;;;;;;-147.86;54.51;47601.36;105968;1256;61916;-45
2024/04/13 10:58:28;;;;;;;5.40;1.20;;;;;;;-147.86;53.76;47619.79;106025;1256;61910;-47
2024/04/13 11:00:55;;;;;;;4.50;1.00;;;;;;;-147.86;56.95;47626.05;105923;1256;75302;-51
2024/04/13 11:03:30;;;;;;;20.80;1.90;;;;;;;-147.86;54.24;47638.21;105919;1256;66121;-44
2024/04/13 11:05:58;;;;;;;13.70;2.00;;;;;;;-147.86;53.92;47628.80;105847;1257;73638;-50
2024/04/13 11:08:26;;;;;;;6.60;1.40;;;;;;;-147.86;55.71;47651.93;105914;1254;61644;-47
2024/04/13 11:10:56;;;;;;;5.80;1.30;;;;;;;-147.86;52.93;47654.29;105863;1254;62117;-49
2024/04/13 11:13:24;;;;;;;5.40;1.20;;;;;;;-147.86;51.11;47646.84;105934;1255;75427;-46
2024/04/13 11:15:51;;;;;;;6.40;1.20;;;;;;;-147.86;49.96;47636.26;105890;1255;66487;-49
2024/04/13 11:18:20;;;;;;;2.50;1.10;;;;;;;-147.86;50.90;47654.29;105908;1256;72853;-50
2024/04/13 11:20:50;;;;;;;4.10;1.20;;;;;;;-147.86;48.46;47671.14;105853;1257;62107;-51
2024/04/13 11:23:17;;;;;;;3.80;0.80;;;;;;;-147.86;47.43;47659.77;105836;1259;61240;-45